sensor_id;sensor_type;location;lat;lon;timestamp;P1;durP1;ratioP1;P2;durP2;ratioP2
15256;SDS011;7731;50.720;6.912;2024-01-10T00:02:10;30.27;;;24.13;;
15256;SDS011;7731;50.720;6.912;2024-01-10T00:04:40;29.53;;;24.83;;
15256;SDS011;7731;50.720;6.912;2024-01-10T00:07:10;38.67;;;26.63;;
15256;SDS011;7731;50.720;6.912;2024-01-10T00:09:53;33.17;;;25.70;;
15256;SDS011;7731;50.720;6.912;2024-01-10T00:12:26;27.00;;;19.30;;
15256;SDS011;7731;50.720;6.912;2024-01-10T00:15:02;24.30;;;21.77;;
15256;SDS011;7731;50.720;6.912;2024-01-10T00:17:34;24.37;;;20.57;;
15256;SDS011;7731;50.720;6.912;2024-01-10T00:20:07;26.67;;;22.90;;
15256;SDS011;7731;50.720;6.912;2024-01-10T00:22:41;25.93;;;22.30;;
15256;SDS011;7731;50.720;6.912;2024-01-10T00:25:18;27.10;;;19.17;;
15256;SDS011;7731;50.720;6.912;2024-01-10T00:27:59;25.20;;;19.00;;
15256;SDS011;7731;50.720;6.912;2024-01-10T00:30:32;28.03;;;20.77;;
15256;SDS011;7731;50.720;6.912;2024-01-10T00:33:03;26.03;;;22.90;;
15256;SDS011;7731;50.720;6.912;2024-01-10T00:35:46;25.77;;;20.23;;
15256;SDS011;7731;50.720;6.912;2024-01-10T00:38:16;25.17;;;21.93;;
15256;SDS011;7731;50.720;6.912;2024-01-10T00:40:50;22.47;;;20.00;;
15256;SDS011;7731;50.720;6.912;2024-01-10T00:43:23;21.87;;;19.57;;
15256;SDS011;7731;50.720;6.912;2024-01-10T00:45:55;23.90;;;21.13;;
15256;SDS011;7731;50.720;6.912;2024-01-10T00:48:26;27.30;;;21.83;;
15256;SDS011;7731;50.720;6.912;2024-01-10T00:50:56;25.10;;;22.43;;
15256;SDS011;7731;50.720;6.912;2024-01-10T00:53:26;23.67;;;21.17;;
15256;SDS011;7731;50.720;6.912;2024-01-10T00:55:57;25.73;;;19.40;;
15256;SDS011;7731;50.720;6.912;2024-01-10T00:58:30;21.37;;;19.13;;
15256;SDS011;7731;50.720;6.912;2024-01-10T01:01:02;23.07;;;19.40;;
15256;SDS011;7731;50.720;6.912;2024-01-10T01:03:36;19.73;;;17.67;;
15256;SDS011;7731;50.720;6.912;2024-01-10T01:06:06;23.63;;;19.90;;
15256;SDS011;7731;50.720;6.912;2024-01-10T01:08:38;23.70;;;19.07;;
15256;SDS011;7731;50.720;6.912;2024-01-10T01:11:11;28.00;;;19.43;;
15256;SDS011;7731;50.720;6.912;2024-01-10T01:13:45;37.50;;;25.07;;
15256;SDS011;7731;50.720;6.912;2024-01-10T01:16:15;37.33;;;24.67;;
15256;SDS011;7731;50.720;6.912;2024-01-10T01:18:45;36.70;;;25.80;;
15256;SDS011;7731;50.720;6.912;2024-01-10T01:21:22;34.03;;;24.03;;
15256;SDS011;7731;50.720;6.912;2024-01-10T01:23:52;29.40;;;22.40;;
15256;SDS011;7731;50.720;6.912;2024-01-10T01:26:23;27.30;;;21.27;;
15256;SDS011;7731;50.720;6.912;2024-01-10T01:28:56;25.27;;;20.60;;
15256;SDS011;7731;50.720;6.912;2024-01-10T01:31:27;19.47;;;17.03;;
15256;SDS011;7731;50.720;6.912;2024-01-10T01:33:57;18.30;;;16.30;;
15256;SDS011;7731;50.720;6.912;2024-01-10T01:36:27;17.10;;;15.30;;
15256;SDS011;7731;50.720;6.912;2024-01-10T01:39:03;16.57;;;14.73;;
15256;SDS011;7731;50.720;6.912;2024-01-10T01:41:34;16.63;;;14.93;;
15256;SDS011;7731;50.720;6.912;2024-01-10T01:44:13;16.80;;;15.13;;
15256;SDS011;7731;50.720;6.912;2024-01-10T01:46:43;17.73;;;15.83;;
15256;SDS011;7731;50.720;6.912;2024-01-10T01:49:18;20.50;;;17.47;;
15256;SDS011;7731;50.720;6.912;2024-01-10T01:51:51;17.03;;;15.30;;
15256;SDS011;7731;50.720;6.912;2024-01-10T01:54:25;18.20;;;16.40;;
15256;SDS011;7731;50.720;6.912;2024-01-10T01:56:56;19.10;;;16.33;;
15256;SDS011;7731;50.720;6.912;2024-01-10T01:59:29;19.03;;;16.50;;
15256;SDS011;7731;50.720;6.912;2024-01-10T02:02:00;18.03;;;16.03;;
15256;SDS011;7731;50.720;6.912;2024-01-10T02:04:34;19.20;;;17.30;;
15256;SDS011;7731;50.720;6.912;2024-01-10T02:07:05;22.33;;;15.70;;
15256;SDS011;7731;50.720;6.912;2024-01-10T02:09:42;17.07;;;15.27;;
15256;SDS011;7731;50.720;6.912;2024-01-10T02:12:12;17.80;;;15.00;;
15256;SDS011;7731;50.720;6.912;2024-01-10T02:14:46;18.30;;;15.33;;
15256;SDS011;7731;50.720;6.912;2024-01-10T02:17:16;19.03;;;16.00;;
15256;SDS011;7731;50.720;6.912;2024-01-10T02:19:46;21.43;;;16.07;;
15256;SDS011;7731;50.720;6.912;2024-01-10T02:22:17;20.97;;;17.00;;
15256;SDS011;7731;50.720;6.912;2024-01-10T02:24:53;19.77;;;16.30;;
15256;SDS011;7731;50.720;6.912;2024-01-10T02:27:24;18.50;;;16.60;;
15256;SDS011;7731;50.720;6.912;2024-01-10T02:29:55;19.27;;;16.90;;
15256;SDS011;7731;50.720;6.912;2024-01-10T02:32:32;17.97;;;16.07;;
15256;SDS011;7731;50.720;6.912;2024-01-10T02:35:06;17.67;;;15.80;;
15256;SDS011;7731;50.720;6.912;2024-01-10T02:37:42;16.93;;;14.67;;
15256;SDS011;7731;50.720;6.912;2024-01-10T02:40:21;17.43;;;14.97;;
15256;SDS011;7731;50.720;6.912;2024-01-10T02:42:52;18.80;;;15.30;;
15256;SDS011;7731;50.720;6.912;2024-01-10T02:45:25;16.10;;;14.30;;
15256;SDS011;7731;50.720;6.912;2024-01-10T02:47:58;17.77;;;15.57;;
15256;SDS011;7731;50.720;6.912;2024-01-10T02:50:29;16.60;;;14.80;;
15256;SDS011;7731;50.720;6.912;2024-01-10T02:52:59;17.47;;;15.20;;
15256;SDS011;7731;50.720;6.912;2024-01-10T02:55:32;17.77;;;14.97;;
15256;SDS011;7731;50.720;6.912;2024-01-10T02:58:03;16.03;;;13.87;;
15256;SDS011;7731;50.720;6.912;2024-01-10T03:00:35;18.23;;;14.80;;
15256;SDS011;7731;50.720;6.912;2024-01-10T03:03:08;17.20;;;15.37;;
15256;SDS011;7731;50.720;6.912;2024-01-10T03:05:39;17.57;;;15.57;;
15256;SDS011;7731;50.720;6.912;2024-01-10T03:08:17;17.83;;;15.60;;
15256;SDS011;7731;50.720;6.912;2024-01-10T03:11:02;20.77;;;17.30;;
15256;SDS011;7731;50.720;6.912;2024-01-10T03:13:35;17.10;;;15.30;;
15256;SDS011;7731;50.720;6.912;2024-01-10T03:16:08;18.47;;;15.80;;
15256;SDS011;7731;50.720;6.912;2024-01-10T03:18:39;20.40;;;16.47;;
15256;SDS011;7731;50.720;6.912;2024-01-10T03:21:09;22.27;;;18.47;;
15256;SDS011;7731;50.720;6.912;2024-01-10T03:23:43;21.27;;;18.97;;
15256;SDS011;7731;50.720;6.912;2024-01-10T03:26:15;21.33;;;19.00;;
15256;SDS011;7731;50.720;6.912;2024-01-10T03:28:46;19.10;;;17.10;;
15256;SDS011;7731;50.720;6.912;2024-01-10T03:31:17;18.27;;;16.37;;
15256;SDS011;7731;50.720;6.912;2024-01-10T03:33:48;17.30;;;15.47;;
15256;SDS011;7731;50.720;6.912;2024-01-10T03:36:19;16.57;;;14.87;;
15256;SDS011;7731;50.720;6.912;2024-01-10T03:38:50;17.53;;;15.70;;
15256;SDS011;7731;50.720;6.912;2024-01-10T03:41:23;15.97;;;14.37;;
15256;SDS011;7731;50.720;6.912;2024-01-10T03:43:53;17.20;;;15.40;;
15256;SDS011;7731;50.720;6.912;2024-01-10T03:46:26;17.07;;;15.27;;
15256;SDS011;7731;50.720;6.912;2024-01-10T03:48:56;17.43;;;15.10;;
15256;SDS011;7731;50.720;6.912;2024-01-10T03:51:27;15.53;;;13.93;;
15256;SDS011;7731;50.720;6.912;2024-01-10T03:53:58;16.70;;;14.97;;
15256;SDS011;7731;50.720;6.912;2024-01-10T03:56:30;15.03;;;13.50;;
15256;SDS011;7731;50.720;6.912;2024-01-10T03:59:01;15.70;;;14.07;;
15256;SDS011;7731;50.720;6.912;2024-01-10T04:01:31;13.87;;;12.47;;
15256;SDS011;7731;50.720;6.912;2024-01-10T04:04:13;17.37;;;14.63;;
15256;SDS011;7731;50.720;6.912;2024-01-10T04:06:52;16.87;;;14.57;;
15256;SDS011;7731;50.720;6.912;2024-01-10T04:09:23;15.57;;;13.80;;
15256;SDS011;7731;50.720;6.912;2024-01-10T04:12:03;15.57;;;13.97;;
15256;SDS011;7731;50.720;6.912;2024-01-10T04:14:34;15.13;;;13.03;;
15256;SDS011;7731;50.720;6.912;2024-01-10T04:17:05;15.10;;;13.27;;
15256;SDS011;7731;50.720;6.912;2024-01-10T04:19:35;16.13;;;14.37;;
15256;SDS011;7731;50.720;6.912;2024-01-10T04:22:06;16.07;;;14.47;;
15256;SDS011;7731;50.720;6.912;2024-01-10T04:24:36;17.27;;;15.47;;
15256;SDS011;7731;50.720;6.912;2024-01-10T04:29:57;16.60;;;14.90;;
15256;SDS011;7731;50.720;6.912;2024-01-10T04:32:27;14.97;;;13.40;;
15256;SDS011;7731;50.720;6.912;2024-01-10T04:34:58;15.13;;;13.63;;
15256;SDS011;7731;50.720;6.912;2024-01-10T04:37:31;18.60;;;13.93;;
15256;SDS011;7731;50.720;6.912;2024-01-10T04:40:01;15.13;;;13.53;;
15256;SDS011;7731;50.720;6.912;2024-01-10T04:42:37;16.23;;;14.20;;
15256;SDS011;7731;50.720;6.912;2024-01-10T04:45:07;15.93;;;14.33;;
15256;SDS011;7731;50.720;6.912;2024-01-10T04:47:38;21.13;;;18.53;;
15256;SDS011;7731;50.720;6.912;2024-01-10T04:50:12;15.97;;;14.37;;
15256;SDS011;7731;50.720;6.912;2024-01-10T04:52:45;15.73;;;14.13;;
15256;SDS011;7731;50.720;6.912;2024-01-10T04:55:28;16.27;;;14.57;;
15256;SDS011;7731;50.720;6.912;2024-01-10T04:58:03;16.17;;;14.40;;
15256;SDS011;7731;50.720;6.912;2024-01-10T05:00:34;15.93;;;13.67;;
15256;SDS011;7731;50.720;6.912;2024-01-10T05:03:09;15.27;;;13.67;;
15256;SDS011;7731;50.720;6.912;2024-01-10T05:05:40;16.10;;;14.40;;
15256;SDS011;7731;50.720;6.912;2024-01-10T05:08:12;16.80;;;14.53;;
15256;SDS011;7731;50.720;6.912;2024-01-10T05:10:47;15.00;;;13.23;;
15256;SDS011;7731;50.720;6.912;2024-01-10T05:13:28;17.07;;;14.53;;
15256;SDS011;7731;50.720;6.912;2024-01-10T05:16:00;32.33;;;28.67;;
15256;SDS011;7731;50.720;6.912;2024-01-10T05:18:31;17.10;;;15.27;;
15256;SDS011;7731;50.720;6.912;2024-01-10T05:21:01;17.37;;;15.00;;
15256;SDS011;7731;50.720;6.912;2024-01-10T05:23:44;15.87;;;14.17;;
15256;SDS011;7731;50.720;6.912;2024-01-10T05:26:15;16.37;;;14.60;;
15256;SDS011;7731;50.720;6.912;2024-01-10T05:28:50;16.23;;;14.63;;
15256;SDS011;7731;50.720;6.912;2024-01-10T05:31:21;16.37;;;12.67;;
15256;SDS011;7731;50.720;6.912;2024-01-10T05:33:51;15.77;;;14.17;;
15256;SDS011;7731;50.720;6.912;2024-01-10T05:36:22;14.97;;;13.17;;
15256;SDS011;7731;50.720;6.912;2024-01-10T05:38:53;19.47;;;17.43;;
15256;SDS011;7731;50.720;6.912;2024-01-10T05:41:23;20.00;;;17.90;;
15256;SDS011;7731;50.720;6.912;2024-01-10T05:43:56;23.77;;;21.47;;
15256;SDS011;7731;50.720;6.912;2024-01-10T05:46:27;22.57;;;20.17;;
15256;SDS011;7731;50.720;6.912;2024-01-10T05:49:04;17.97;;;16.07;;
15256;SDS011;7731;50.720;6.912;2024-01-10T05:51:35;17.23;;;15.43;;
15256;SDS011;7731;50.720;6.912;2024-01-10T05:54:05;17.07;;;14.53;;
15256;SDS011;7731;50.720;6.912;2024-01-10T05:56:38;14.73;;;12.97;;
15256;SDS011;7731;50.720;6.912;2024-01-10T05:59:16;16.47;;;14.40;;
15256;SDS011;7731;50.720;6.912;2024-01-10T06:02:02;15.57;;;13.23;;
15256;SDS011;7731;50.720;6.912;2024-01-10T06:04:33;18.10;;;16.03;;
15256;SDS011;7731;50.720;6.912;2024-01-10T06:07:08;22.53;;;18.70;;
15256;SDS011;7731;50.720;6.912;2024-01-10T06:09:38;20.73;;;17.27;;
15256;SDS011;7731;50.720;6.912;2024-01-10T06:12:11;20.40;;;16.60;;
15256;SDS011;7731;50.720;6.912;2024-01-10T06:14:44;23.80;;;19.30;;
15256;SDS011;7731;50.720;6.912;2024-01-10T06:17:14;22.47;;;18.53;;
15256;SDS011;7731;50.720;6.912;2024-01-10T06:19:45;21.70;;;17.07;;
15256;SDS011;7731;50.720;6.912;2024-01-10T06:22:25;19.83;;;16.67;;
15256;SDS011;7731;50.720;6.912;2024-01-10T06:24:56;18.17;;;15.53;;
15256;SDS011;7731;50.720;6.912;2024-01-10T06:27:26;18.17;;;15.40;;
15256;SDS011;7731;50.720;6.912;2024-01-10T06:30:02;79.33;;;56.93;;
15256;SDS011;7731;50.720;6.912;2024-01-10T06:32:36;251.13;;;185.37;;
15256;SDS011;7731;50.720;6.912;2024-01-10T06:35:07;175.67;;;123.77;;
15256;SDS011;7731;50.720;6.912;2024-01-10T06:37:38;143.53;;;106.47;;
15256;SDS011;7731;50.720;6.912;2024-01-10T06:40:11;22.90;;;19.83;;
15256;SDS011;7731;50.720;6.912;2024-01-10T06:42:41;21.43;;;18.23;;
15256;SDS011;7731;50.720;6.912;2024-01-10T06:45:14;38.83;;;28.53;;
15256;SDS011;7731;50.720;6.912;2024-01-10T06:47:49;22.50;;;19.27;;
15256;SDS011;7731;50.720;6.912;2024-01-10T06:50:20;23.73;;;20.00;;
15256;SDS011;7731;50.720;6.912;2024-01-10T06:52:50;22.50;;;19.77;;
15256;SDS011;7731;50.720;6.912;2024-01-10T06:55:21;23.60;;;19.40;;
15256;SDS011;7731;50.720;6.912;2024-01-10T06:57:55;25.23;;;20.20;;
15256;SDS011;7731;50.720;6.912;2024-01-10T07:00:28;24.63;;;18.73;;
15256;SDS011;7731;50.720;6.912;2024-01-10T07:03:00;27.20;;;22.00;;
15256;SDS011;7731;50.720;6.912;2024-01-10T07:05:31;27.37;;;22.57;;
15256;SDS011;7731;50.720;6.912;2024-01-10T07:08:02;23.50;;;20.53;;
15256;SDS011;7731;50.720;6.912;2024-01-10T07:10:35;21.83;;;16.83;;
15256;SDS011;7731;50.720;6.912;2024-01-10T07:13:06;20.80;;;18.60;;
15256;SDS011;7731;50.720;6.912;2024-01-10T07:15:41;21.77;;;17.77;;
15256;SDS011;7731;50.720;6.912;2024-01-10T07:18:12;21.13;;;18.77;;
15256;SDS011;7731;50.720;6.912;2024-01-10T07:20:42;21.40;;;18.50;;
15256;SDS011;7731;50.720;6.912;2024-01-10T07:23:15;25.30;;;18.60;;
15256;SDS011;7731;50.720;6.912;2024-01-10T07:25:46;23.40;;;19.87;;
15256;SDS011;7731;50.720;6.912;2024-01-10T07:28:16;25.23;;;20.07;;
15256;SDS011;7731;50.720;6.912;2024-01-10T07:30:50;26.67;;;20.87;;
15256;SDS011;7731;50.720;6.912;2024-01-10T07:33:23;22.40;;;19.57;;
15256;SDS011;7731;50.720;6.912;2024-01-10T07:35:53;24.47;;;20.97;;
15256;SDS011;7731;50.720;6.912;2024-01-10T07:38:30;25.07;;;19.87;;
15256;SDS011;7731;50.720;6.912;2024-01-10T07:41:04;24.37;;;19.20;;
15256;SDS011;7731;50.720;6.912;2024-01-10T07:43:34;25.83;;;20.10;;
15256;SDS011;7731;50.720;6.912;2024-01-10T07:46:09;27.17;;;21.63;;
15256;SDS011;7731;50.720;6.912;2024-01-10T07:48:42;25.70;;;20.93;;
15256;SDS011;7731;50.720;6.912;2024-01-10T07:51:12;25.73;;;21.07;;
15256;SDS011;7731;50.720;6.912;2024-01-10T07:53:49;21.17;;;18.87;;
15256;SDS011;7731;50.720;6.912;2024-01-10T07:56:19;28.00;;;22.57;;
15256;SDS011;7731;50.720;6.912;2024-01-10T07:58:55;24.33;;;21.73;;
15256;SDS011;7731;50.720;6.912;2024-01-10T08:01:31;23.17;;;20.60;;
15256;SDS011;7731;50.720;6.912;2024-01-10T08:04:09;25.40;;;22.10;;
15256;SDS011;7731;50.720;6.912;2024-01-10T08:06:41;25.00;;;22.33;;
15256;SDS011;7731;50.720;6.912;2024-01-10T08:09:15;30.00;;;24.57;;
15256;SDS011;7731;50.720;6.912;2024-01-10T08:11:45;25.83;;;23.13;;
15256;SDS011;7731;50.720;6.912;2024-01-10T08:14:16;25.83;;;23.03;;
15256;SDS011;7731;50.720;6.912;2024-01-10T08:16:49;26.57;;;23.57;;
15256;SDS011;7731;50.720;6.912;2024-01-10T08:19:21;24.87;;;19.40;;
15256;SDS011;7731;50.720;6.912;2024-01-10T08:21:53;22.57;;;19.73;;
15256;SDS011;7731;50.720;6.912;2024-01-10T08:24:24;23.33;;;20.33;;
15256;SDS011;7731;50.720;6.912;2024-01-10T08:26:54;22.27;;;18.53;;
15256;SDS011;7731;50.720;6.912;2024-01-10T08:29:27;25.03;;;18.93;;
15256;SDS011;7731;50.720;6.912;2024-01-10T08:32:01;23.83;;;20.47;;
15256;SDS011;7731;50.720;6.912;2024-01-10T08:34:32;21.00;;;17.63;;
15256;SDS011;7731;50.720;6.912;2024-01-10T08:37:02;23.77;;;18.73;;
15256;SDS011;7731;50.720;6.912;2024-01-10T08:39:34;21.43;;;17.97;;
15256;SDS011;7731;50.720;6.912;2024-01-10T08:42:04;20.90;;;17.43;;
15256;SDS011;7731;50.720;6.912;2024-01-10T08:44:36;21.53;;;17.67;;
15256;SDS011;7731;50.720;6.912;2024-01-10T08:47:09;20.27;;;17.63;;
15256;SDS011;7731;50.720;6.912;2024-01-10T08:49:40;20.03;;;17.17;;
15256;SDS011;7731;50.720;6.912;2024-01-10T08:52:10;19.97;;;16.93;;
15256;SDS011;7731;50.720;6.912;2024-01-10T08:54:41;22.67;;;18.10;;
15256;SDS011;7731;50.720;6.912;2024-01-10T08:57:11;21.50;;;17.93;;
15256;SDS011;7731;50.720;6.912;2024-01-10T08:59:42;21.50;;;17.73;;
15256;SDS011;7731;50.720;6.912;2024-01-10T09:02:17;21.83;;;17.70;;
15256;SDS011;7731;50.720;6.912;2024-01-10T09:04:50;23.20;;;17.03;;
15256;SDS011;7731;50.720;6.912;2024-01-10T09:07:21;21.90;;;17.47;;
15256;SDS011;7731;50.720;6.912;2024-01-10T09:09:51;21.77;;;17.17;;
15256;SDS011;7731;50.720;6.912;2024-01-10T09:12:22;21.37;;;17.23;;
15256;SDS011;7731;50.720;6.912;2024-01-10T09:14:55;21.20;;;17.53;;
15256;SDS011;7731;50.720;6.912;2024-01-10T09:17:28;20.63;;;15.90;;
15256;SDS011;7731;50.720;6.912;2024-01-10T09:19:58;21.43;;;16.37;;
15256;SDS011;7731;50.720;6.912;2024-01-10T09:22:32;19.13;;;16.47;;
15256;SDS011;7731;50.720;6.912;2024-01-10T09:25:04;21.07;;;15.53;;
15256;SDS011;7731;50.720;6.912;2024-01-10T09:27:35;21.20;;;16.50;;
15256;SDS011;7731;50.720;6.912;2024-01-10T09:30:07;21.07;;;17.03;;
15256;SDS011;7731;50.720;6.912;2024-01-10T09:32:45;21.50;;;16.07;;
15256;SDS011;7731;50.720;6.912;2024-01-10T09:35:19;21.27;;;15.87;;
15256;SDS011;7731;50.720;6.912;2024-01-10T09:37:49;23.93;;;16.77;;
15256;SDS011;7731;50.720;6.912;2024-01-10T09:40:23;23.03;;;15.80;;
15256;SDS011;7731;50.720;6.912;2024-01-10T09:43:04;19.30;;;14.30;;
15256;SDS011;7731;50.720;6.912;2024-01-10T09:45:36;20.17;;;15.87;;
15256;SDS011;7731;50.720;6.912;2024-01-10T09:48:18;54.30;;;19.57;;
15256;SDS011;7731;50.720;6.912;2024-01-10T09:50:49;24.33;;;16.67;;
15256;SDS011;7731;50.720;6.912;2024-01-10T09:53:24;23.50;;;16.87;;
15256;SDS011;7731;50.720;6.912;2024-01-10T09:55:59;22.80;;;16.10;;
15256;SDS011;7731;50.720;6.912;2024-01-10T09:58:35;20.50;;;16.50;;
15256;SDS011;7731;50.720;6.912;2024-01-10T10:01:08;22.57;;;16.67;;
15256;SDS011;7731;50.720;6.912;2024-01-10T10:03:44;22.90;;;17.03;;
15256;SDS011;7731;50.720;6.912;2024-01-10T10:06:20;22.53;;;17.50;;
15256;SDS011;7731;50.720;6.912;2024-01-10T10:08:54;21.03;;;16.57;;
15256;SDS011;7731;50.720;6.912;2024-01-10T10:11:26;21.33;;;16.23;;
15256;SDS011;7731;50.720;6.912;2024-01-10T10:14:13;21.50;;;16.87;;
15256;SDS011;7731;50.720;6.912;2024-01-10T10:16:45;21.70;;;15.80;;
15256;SDS011;7731;50.720;6.912;2024-01-10T10:19:26;23.70;;;17.77;;
15256;SDS011;7731;50.720;6.912;2024-01-10T10:22:09;21.27;;;15.80;;
15256;SDS011;7731;50.720;6.912;2024-01-10T10:24:42;23.67;;;17.07;;
15256;SDS011;7731;50.720;6.912;2024-01-10T10:27:19;23.93;;;17.50;;
15256;SDS011;7731;50.720;6.912;2024-01-10T10:29:50;24.67;;;17.60;;
15256;SDS011;7731;50.720;6.912;2024-01-10T10:32:20;25.83;;;17.83;;
15256;SDS011;7731;50.720;6.912;2024-01-10T10:34:55;22.43;;;18.30;;
15256;SDS011;7731;50.720;6.912;2024-01-10T10:37:26;23.80;;;17.07;;
15256;SDS011;7731;50.720;6.912;2024-01-10T10:39:56;22.80;;;17.77;;
15256;SDS011;7731;50.720;6.912;2024-01-10T10:42:26;24.30;;;16.00;;
15256;SDS011;7731;50.720;6.912;2024-01-10T10:45:04;22.03;;;17.43;;
15256;SDS011;7731;50.720;6.912;2024-01-10T10:47:38;19.73;;;16.63;;
15256;SDS011;7731;50.720;6.912;2024-01-10T10:50:22;21.13;;;16.10;;
15256;SDS011;7731;50.720;6.912;2024-01-10T10:52:53;21.67;;;16.93;;
15256;SDS011;7731;50.720;6.912;2024-01-10T10:55:28;24.37;;;18.10;;
15256;SDS011;7731;50.720;6.912;2024-01-10T10:58:03;22.13;;;16.83;;
15256;SDS011;7731;50.720;6.912;2024-01-10T11:00:40;21.63;;;17.50;;
15256;SDS011;7731;50.720;6.912;2024-01-10T11:03:16;22.97;;;18.70;;
15256;SDS011;7731;50.720;6.912;2024-01-10T11:05:57;22.83;;;17.80;;
15256;SDS011;7731;50.720;6.912;2024-01-10T11:08:34;20.73;;;15.13;;
15256;SDS011;7731;50.720;6.912;2024-01-10T11:11:12;20.47;;;16.17;;
15256;SDS011;7731;50.720;6.912;2024-01-10T11:14:03;22.00;;;16.80;;
15256;SDS011;7731;50.720;6.912;2024-01-10T11:17:06;21.03;;;16.57;;
15256;SDS011;7731;50.720;6.912;2024-01-10T11:26:14;22.17;;;16.83;;
15256;SDS011;7731;50.720;6.912;2024-01-10T11:28:46;22.83;;;17.80;;
15256;SDS011;7731;50.720;6.912;2024-01-10T11:31:27;23.70;;;17.47;;
15256;SDS011;7731;50.720;6.912;2024-01-10T11:34:01;22.53;;;16.80;;
15256;SDS011;7731;50.720;6.912;2024-01-10T11:36:32;21.90;;;16.73;;
15256;SDS011;7731;50.720;6.912;2024-01-10T11:39:11;23.50;;;16.63;;
15256;SDS011;7731;50.720;6.912;2024-01-10T11:41:47;23.50;;;16.30;;
15256;SDS011;7731;50.720;6.912;2024-01-10T11:44:25;21.67;;;17.13;;
15256;SDS011;7731;50.720;6.912;2024-01-10T11:47:03;23.40;;;17.70;;
15256;SDS011;7731;50.720;6.912;2024-01-10T11:49:34;23.10;;;18.03;;
15256;SDS011;7731;50.720;6.912;2024-01-10T11:52:04;21.20;;;16.50;;
15256;SDS011;7731;50.720;6.912;2024-01-10T11:54:50;21.90;;;17.03;;
15256;SDS011;7731;50.720;6.912;2024-01-10T11:57:27;27.30;;;18.63;;
15256;SDS011;7731;50.720;6.912;2024-01-10T11:59:59;23.50;;;17.33;;
15256;SDS011;7731;50.720;6.912;2024-01-10T12:02:35;20.83;;;16.83;;
15256;SDS011;7731;50.720;6.912;2024-01-10T12:05:07;22.63;;;17.23;;
15256;SDS011;7731;50.720;6.912;2024-01-10T12:07:38;22.40;;;17.77;;
15256;SDS011;7731;50.720;6.912;2024-01-10T12:10:13;21.07;;;15.43;;
15256;SDS011;7731;50.720;6.912;2024-01-10T12:12:43;21.67;;;17.73;;
15256;SDS011;7731;50.720;6.912;2024-01-10T12:15:14;21.33;;;17.40;;
15256;SDS011;7731;50.720;6.912;2024-01-10T12:17:45;23.50;;;17.93;;
15256;SDS011;7731;50.720;6.912;2024-01-10T12:20:15;21.73;;;16.47;;
15256;SDS011;7731;50.720;6.912;2024-01-10T12:22:45;23.10;;;16.43;;
15256;SDS011;7731;50.720;6.912;2024-01-10T12:25:23;21.33;;;15.90;;
15256;SDS011;7731;50.720;6.912;2024-01-10T12:28:01;21.30;;;16.53;;
15256;SDS011;7731;50.720;6.912;2024-01-10T12:30:31;22.00;;;16.73;;
15256;SDS011;7731;50.720;6.912;2024-01-10T12:33:02;23.80;;;16.83;;
15256;SDS011;7731;50.720;6.912;2024-01-10T12:35:33;21.10;;;16.73;;
15256;SDS011;7731;50.720;6.912;2024-01-10T12:38:06;22.60;;;17.47;;
15256;SDS011;7731;50.720;6.912;2024-01-10T12:40:39;22.07;;;16.83;;
15256;SDS011;7731;50.720;6.912;2024-01-10T12:43:10;21.90;;;17.80;;
15256;SDS011;7731;50.720;6.912;2024-01-10T12:45:42;31.53;;;23.37;;
15256;SDS011;7731;50.720;6.912;2024-01-10T12:48:13;24.90;;;19.90;;
15256;SDS011;7731;50.720;6.912;2024-01-10T12:50:44;22.20;;;18.63;;
15256;SDS011;7731;50.720;6.912;2024-01-10T12:53:17;21.97;;;18.53;;
15256;SDS011;7731;50.720;6.912;2024-01-10T12:55:49;22.77;;;17.23;;
15256;SDS011;7731;50.720;6.912;2024-01-10T12:58:21;24.40;;;18.30;;
15256;SDS011;7731;50.720;6.912;2024-01-10T13:01:04;21.73;;;17.17;;
15256;SDS011;7731;50.720;6.912;2024-01-10T13:03:34;19.67;;;16.30;;
15256;SDS011;7731;50.720;6.912;2024-01-10T13:06:12;23.83;;;17.27;;
15256;SDS011;7731;50.720;6.912;2024-01-10T13:08:43;25.60;;;18.57;;
15256;SDS011;7731;50.720;6.912;2024-01-10T13:11:22;26.10;;;18.50;;
15256;SDS011;7731;50.720;6.912;2024-01-10T13:13:56;24.87;;;16.90;;
15256;SDS011;7731;50.720;6.912;2024-01-10T13:16:33;23.97;;;17.67;;
15256;SDS011;7731;50.720;6.912;2024-01-10T13:19:19;21.50;;;16.90;;
15256;SDS011;7731;50.720;6.912;2024-01-10T13:21:49;21.63;;;17.77;;
15256;SDS011;7731;50.720;6.912;2024-01-10T13:24:20;22.27;;;18.00;;
15256;SDS011;7731;50.720;6.912;2024-01-10T13:26:53;22.43;;;17.50;;
15256;SDS011;7731;50.720;6.912;2024-01-10T13:29:23;21.97;;;17.50;;
15256;SDS011;7731;50.720;6.912;2024-01-10T13:31:53;23.77;;;18.20;;
15256;SDS011;7731;50.720;6.912;2024-01-10T13:34:36;22.43;;;17.53;;
15256;SDS011;7731;50.720;6.912;2024-01-10T13:37:06;21.17;;;16.83;;
15256;SDS011;7731;50.720;6.912;2024-01-10T13:39:40;21.13;;;17.27;;
15256;SDS011;7731;50.720;6.912;2024-01-10T13:42:15;23.07;;;16.87;;
15256;SDS011;7731;50.720;6.912;2024-01-10T13:44:46;25.40;;;18.80;;
15256;SDS011;7731;50.720;6.912;2024-01-10T13:47:18;22.53;;;17.53;;
15256;SDS011;7731;50.720;6.912;2024-01-10T13:49:49;22.80;;;18.43;;
15256;SDS011;7731;50.720;6.912;2024-01-10T13:52:19;26.03;;;19.07;;
15256;SDS011;7731;50.720;6.912;2024-01-10T13:54:49;24.40;;;18.57;;
15256;SDS011;7731;50.720;6.912;2024-01-10T13:57:22;25.70;;;19.90;;
15256;SDS011;7731;50.720;6.912;2024-01-10T13:59:57;23.60;;;17.60;;
15256;SDS011;7731;50.720;6.912;2024-01-10T14:02:28;24.23;;;18.37;;
15256;SDS011;7731;50.720;6.912;2024-01-10T14:04:58;23.67;;;17.87;;
15256;SDS011;7731;50.720;6.912;2024-01-10T14:07:32;25.47;;;17.27;;
15256;SDS011;7731;50.720;6.912;2024-01-10T14:10:03;24.13;;;16.80;;
15256;SDS011;7731;50.720;6.912;2024-01-10T14:12:52;22.33;;;16.40;;
15256;SDS011;7731;50.720;6.912;2024-01-10T14:15:24;21.33;;;16.63;;
15256;SDS011;7731;50.720;6.912;2024-01-10T14:17:56;20.97;;;15.40;;
15256;SDS011;7731;50.720;6.912;2024-01-10T14:20:29;21.00;;;17.03;;
15256;SDS011;7731;50.720;6.912;2024-01-10T14:23:00;22.23;;;16.47;;
15256;SDS011;7731;50.720;6.912;2024-01-10T14:25:33;20.43;;;16.37;;
15256;SDS011;7731;50.720;6.912;2024-01-10T14:28:08;21.90;;;17.00;;
15256;SDS011;7731;50.720;6.912;2024-01-10T14:30:39;22.00;;;16.90;;
15256;SDS011;7731;50.720;6.912;2024-01-10T14:33:13;20.47;;;15.67;;
15256;SDS011;7731;50.720;6.912;2024-01-10T14:35:46;20.73;;;15.77;;
15256;SDS011;7731;50.720;6.912;2024-01-10T14:38:16;19.97;;;15.90;;
15256;SDS011;7731;50.720;6.912;2024-01-10T14:40:48;21.03;;;15.77;;
15256;SDS011;7731;50.720;6.912;2024-01-10T14:43:21;23.47;;;16.57;;
15256;SDS011;7731;50.720;6.912;2024-01-10T14:45:51;18.93;;;15.97;;
15256;SDS011;7731;50.720;6.912;2024-01-10T14:48:22;23.67;;;16.33;;
15256;SDS011;7731;50.720;6.912;2024-01-10T14:50:52;19.40;;;15.53;;
15256;SDS011;7731;50.720;6.912;2024-01-10T14:53:23;26.23;;;18.27;;
15256;SDS011;7731;50.720;6.912;2024-01-10T14:55:53;20.90;;;16.40;;
15256;SDS011;7731;50.720;6.912;2024-01-10T14:58:26;19.07;;;15.80;;
15256;SDS011;7731;50.720;6.912;2024-01-10T15:00:58;22.80;;;17.40;;
15256;SDS011;7731;50.720;6.912;2024-01-10T15:03:29;22.70;;;17.57;;
15256;SDS011;7731;50.720;6.912;2024-01-10T15:06:05;20.23;;;17.40;;
15256;SDS011;7731;50.720;6.912;2024-01-10T15:08:36;21.67;;;16.90;;
15256;SDS011;7731;50.720;6.912;2024-01-10T15:11:09;22.33;;;17.00;;
15256;SDS011;7731;50.720;6.912;2024-01-10T15:13:42;21.80;;;16.57;;
15256;SDS011;7731;50.720;6.912;2024-01-10T15:16:15;19.73;;;16.93;;
15256;SDS011;7731;50.720;6.912;2024-01-10T15:18:50;22.47;;;16.80;;